sensor_id;sensor_type;location;lat;lon;timestamp;temperature;humidity
13148;DHT22;6639;50.956;4.242;2022-11-22T00:01:01;10.90;99.90
13148;DHT22;6639;50.956;4.242;2022-11-22T00:03:28;11.00;99.90
13148;DHT22;6639;50.956;4.242;2022-11-22T00:05:55;11.00;99.90
13148;DHT22;6639;50.956;4.242;2022-11-22T00:08:22;10.80;99.90
13148;DHT22;6639;50.956;4.242;2022-11-22T00:10:51;10.70;99.90
13148;DHT22;6639;50.956;4.242;2022-11-22T00:13:18;10.80;99.90
13148;DHT22;6639;50.956;4.242;2022-11-22T00:15:56;10.90;99.90
13148;DHT22;6639;50.956;4.242;2022-11-22T00:18:23;10.80;99.90
13148;DHT22;6639;50.956;4.242;2022-11-22T00:20:50;10.60;99.90
13148;DHT22;6639;50.956;4.242;2022-11-22T00:23:17;10.70;99.90
13148;DHT22;6639;50.956;4.242;2022-11-22T00:25:44;10.90;99.90
13148;DHT22;6639;50.956;4.242;2022-11-22T00:28:12;11.00;99.90
13148;DHT22;6639;50.956;4.242;2022-11-22T00:30:39;11.00;99.90
13148;DHT22;6639;50.956;4.242;2022-11-22T00:33:06;11.10;99.90
13148;DHT22;6639;50.956;4.242;2022-11-22T00:35:33;10.90;99.90
13148;DHT22;6639;50.956;4.242;2022-11-22T00:38:00;10.80;99.90
13148;DHT22;6639;50.956;4.242;2022-11-22T00:40:27;10.70;99.90
13148;DHT22;6639;50.956;4.242;2022-11-22T00:42:54;10.80;99.90
13148;DHT22;6639;50.956;4.242;2022-11-22T00:45:22;10.40;99.90
13148;DHT22;6639;50.956;4.242;2022-11-22T00:47:49;10.30;99.90
13148;DHT22;6639;50.956;4.242;2022-11-22T00:50:16;10.20;99.90
13148;DHT22;6639;50.956;4.242;2022-11-22T00:52:43;10.20;99.90
13148;DHT22;6639;50.956;4.242;2022-11-22T00:55:09;10.20;99.90
13148;DHT22;6639;50.956;4.242;2022-11-22T00:57:36;10.20;99.90
13148;DHT22;6639;50.956;4.242;2022-11-22T01:00:04;10.30;99.90
13148;DHT22;6639;50.956;4.242;2022-11-22T01:02:33;10.30;99.90
13148;DHT22;6639;50.956;4.242;2022-11-22T01:05:00;10.00;99.90
13148;DHT22;6639;50.956;4.242;2022-11-22T01:07:26;10.10;99.90
13148;DHT22;6639;50.956;4.242;2022-11-22T01:09:53;10.60;99.90
13148;DHT22;6639;50.956;4.242;2022-11-22T01:12:20;10.60;99.90
13148;DHT22;6639;50.956;4.242;2022-11-22T01:14:47;10.60;99.90
13148;DHT22;6639;50.956;4.242;2022-11-22T01:17:14;10.50;99.90
13148;DHT22;6639;50.956;4.242;2022-11-22T01:19:42;10.50;99.90
13148;DHT22;6639;50.956;4.242;2022-11-22T01:22:09;10.20;99.90
13148;DHT22;6639;50.956;4.242;2022-11-22T01:24:36;10.00;99.90
13148;DHT22;6639;50.956;4.242;2022-11-22T01:27:03;10.10;99.90
13148;DHT22;6639;50.956;4.242;2022-11-22T01:29:30;10.20;99.90
13148;DHT22;6639;50.956;4.242;2022-11-22T01:31:56;10.30;99.90
13148;DHT22;6639;50.956;4.242;2022-11-22T01:34:23;10.20;99.90
13148;DHT22;6639;50.956;4.242;2022-11-22T01:36:52;10.00;99.90
13148;DHT22;6639;50.956;4.242;2022-11-22T01:39:19;10.20;99.90
13148;DHT22;6639;50.956;4.242;2022-11-22T01:41:45;9.80;99.90
13148;DHT22;6639;50.956;4.242;2022-11-22T01:44:20;10.00;99.90
13148;DHT22;6639;50.956;4.242;2022-11-22T01:46:48;9.90;99.90
13148;DHT22;6639;50.956;4.242;2022-11-22T01:49:23;9.90;99.90
13148;DHT22;6639;50.956;4.242;2022-11-22T01:51:54;10.20;99.90
13148;DHT22;6639;50.956;4.242;2022-11-22T01:54:25;10.10;99.90
13148;DHT22;6639;50.956;4.242;2022-11-22T01:56:57;10.00;99.90
13148;DHT22;6639;50.956;4.242;2022-11-22T01:59:28;10.00;99.90
13148;DHT22;6639;50.956;4.242;2022-11-22T02:01:56;10.00;99.90
13148;DHT22;6639;50.956;4.242;2022-11-22T02:04:25;10.20;99.90
13148;DHT22;6639;50.956;4.242;2022-11-22T02:06:58;10.10;99.90
13148;DHT22;6639;50.956;4.242;2022-11-22T02:09:26;10.20;99.90
13148;DHT22;6639;50.956;4.242;2022-11-22T02:11:57;10.40;99.90
13148;DHT22;6639;50.956;4.242;2022-11-22T02:14:26;10.70;99.90
13148;DHT22;6639;50.956;4.242;2022-11-22T02:16:53;10.70;99.90
13148;DHT22;6639;50.956;4.242;2022-11-22T02:19:25;10.60;99.90
13148;DHT22;6639;50.956;4.242;2022-11-22T02:22:00;10.40;99.90
13148;DHT22;6639;50.956;4.242;2022-11-22T02:24:34;10.30;99.90
13148;DHT22;6639;50.956;4.242;2022-11-22T02:27:03;10.20;99.90
13148;DHT22;6639;50.956;4.242;2022-11-22T02:29:30;10.10;99.90
13148;DHT22;6639;50.956;4.242;2022-11-22T02:31:57;10.40;99.90
13148;DHT22;6639;50.956;4.242;2022-11-22T02:34:24;10.30;99.90
13148;DHT22;6639;50.956;4.242;2022-11-22T02:36:52;10.30;99.90
13148;DHT22;6639;50.956;4.242;2022-11-22T02:39:24;10.50;99.90
13148;DHT22;6639;50.956;4.242;2022-11-22T02:41:53;10.30;99.90
13148;DHT22;6639;50.956;4.242;2022-11-22T02:44:21;10.50;99.90
13148;DHT22;6639;50.956;4.242;2022-11-22T02:46:52;10.80;99.90
13148;DHT22;6639;50.956;4.242;2022-11-22T02:49:20;10.70;99.90
13148;DHT22;6639;50.956;4.242;2022-11-22T02:51:48;10.60;99.90
13148;DHT22;6639;50.956;4.242;2022-11-22T02:54:15;10.70;99.90
13148;DHT22;6639;50.956;4.242;2022-11-22T02:56:43;10.90;99.90
13148;DHT22;6639;50.956;4.242;2022-11-22T02:59:09;10.80;99.90
13148;DHT22;6639;50.956;4.242;2022-11-22T03:01:38;10.50;99.90
13148;DHT22;6639;50.956;4.242;2022-11-22T03:04:05;10.20;99.90
13148;DHT22;6639;50.956;4.242;2022-11-22T03:06:32;10.30;99.90
13148;DHT22;6639;50.956;4.242;2022-11-22T03:08:59;10.20;99.90
13148;DHT22;6639;50.956;4.242;2022-11-22T03:11:26;10.10;99.90
13148;DHT22;6639;50.956;4.242;2022-11-22T03:13:52;10.20;99.90
13148;DHT22;6639;50.956;4.242;2022-11-22T03:16:19;10.10;99.90
13148;DHT22;6639;50.956;4.242;2022-11-22T03:18:47;10.00;99.90
13148;DHT22;6639;50.956;4.242;2022-11-22T03:21:14;10.30;99.90
13148;DHT22;6639;50.956;4.242;2022-11-22T03:23:41;10.30;99.90
13148;DHT22;6639;50.956;4.242;2022-11-22T03:26:09;10.60;99.90
13148;DHT22;6639;50.956;4.242;2022-11-22T03:28:36;10.90;99.90
13148;DHT22;6639;50.956;4.242;2022-11-22T03:31:04;11.10;99.90
13148;DHT22;6639;50.956;4.242;2022-11-22T03:33:32;11.00;99.90
13148;DHT22;6639;50.956;4.242;2022-11-22T03:36:00;10.60;99.90
13148;DHT22;6639;50.956;4.242;2022-11-22T03:38:27;10.30;99.90
13148;DHT22;6639;50.956;4.242;2022-11-22T03:40:54;10.50;99.90
13148;DHT22;6639;50.956;4.242;2022-11-22T03:43:21;10.60;99.90
13148;DHT22;6639;50.956;4.242;2022-11-22T03:45:48;10.60;99.90
13148;DHT22;6639;50.956;4.242;2022-11-22T03:48:15;10.40;99.90
13148;DHT22;6639;50.956;4.242;2022-11-22T03:50:42;10.10;99.90
13148;DHT22;6639;50.956;4.242;2022-11-22T03:53:10;10.00;99.90
13148;DHT22;6639;50.956;4.242;2022-11-22T03:55:37;9.80;99.90
13148;DHT22;6639;50.956;4.242;2022-11-22T03:58:05;9.50;99.90
13148;DHT22;6639;50.956;4.242;2022-11-22T04:00:32;9.60;99.90
13148;DHT22;6639;50.956;4.242;2022-11-22T04:02:59;9.40;99.90
13148;DHT22;6639;50.956;4.242;2022-11-22T04:05:26;9.10;99.90
13148;DHT22;6639;50.956;4.242;2022-11-22T04:07:52;9.40;99.90
13148;DHT22;6639;50.956;4.242;2022-11-22T04:10:24;9.30;99.90
13148;DHT22;6639;50.956;4.242;2022-11-22T04:12:55;9.00;99.90
13148;DHT22;6639;50.956;4.242;2022-11-22T04:15:22;9.20;99.90
13148;DHT22;6639;50.956;4.242;2022-11-22T04:17:48;9.30;99.90
13148;DHT22;6639;50.956;4.242;2022-11-22T04:20:16;9.60;99.90
13148;DHT22;6639;50.956;4.242;2022-11-22T04:23:02;9.50;99.90
13148;DHT22;6639;50.956;4.242;2022-11-22T04:25:31;9.60;99.90
13148;DHT22;6639;50.956;4.242;2022-11-22T04:27:58;9.60;99.90
13148;DHT22;6639;50.956;4.242;2022-11-22T04:30:25;9.40;99.90
13148;DHT22;6639;50.956;4.242;2022-11-22T04:33:13;9.40;99.90
13148;DHT22;6639;50.956;4.242;2022-11-22T04:35:40;9.80;99.90
13148;DHT22;6639;50.956;4.242;2022-11-22T04:38:07;10.10;99.90
13148;DHT22;6639;50.956;4.242;2022-11-22T04:40:36;9.80;99.90
13148;DHT22;6639;50.956;4.242;2022-11-22T04:43:03;9.20;99.90
13148;DHT22;6639;50.956;4.242;2022-11-22T04:45:48;9.50;99.90
13148;DHT22;6639;50.956;4.242;2022-11-22T04:48:15;9.70;99.90
13148;DHT22;6639;50.956;4.242;2022-11-22T04:50:42;10.00;99.90
13148;DHT22;6639;50.956;4.242;2022-11-22T04:53:27;9.80;99.90
13148;DHT22;6639;50.956;4.242;2022-11-22T04:55:56;10.00;99.90
13148;DHT22;6639;50.956;4.242;2022-11-22T04:58:23;9.90;99.90
13148;DHT22;6639;50.956;4.242;2022-11-22T05:00:50;9.60;99.90
13148;DHT22;6639;50.956;4.242;2022-11-22T05:03:17;9.50;99.90
13148;DHT22;6639;50.956;4.242;2022-11-22T05:05:44;9.40;99.90
13148;DHT22;6639;50.956;4.242;2022-11-22T05:08:11;9.40;99.90
13148;DHT22;6639;50.956;4.242;2022-11-22T05:10:39;9.50;99.90
13148;DHT22;6639;50.956;4.242;2022-11-22T05:13:28;9.40;99.90
13148;DHT22;6639;50.956;4.242;2022-11-22T05:15:56;9.50;99.90
13148;DHT22;6639;50.956;4.242;2022-11-22T05:18:23;9.60;99.90
13148;DHT22;6639;50.956;4.242;2022-11-22T05:20:50;10.10;99.90
13148;DHT22;6639;50.956;4.242;2022-11-22T05:23:17;10.10;99.90
13148;DHT22;6639;50.956;4.242;2022-11-22T05:26:02;10.10;99.90
13148;DHT22;6639;50.956;4.242;2022-11-22T05:28:32;9.90;99.90
13148;DHT22;6639;50.956;4.242;2022-11-22T05:31:05;10.00;99.90
13148;DHT22;6639;50.956;4.242;2022-11-22T05:33:34;10.00;99.90
13148;DHT22;6639;50.956;4.242;2022-11-22T05:36:01;10.10;99.90
13148;DHT22;6639;50.956;4.242;2022-11-22T05:38:28;10.20;99.90
13148;DHT22;6639;50.956;4.242;2022-11-22T05:40:55;10.70;99.90
13148;DHT22;6639;50.956;4.242;2022-11-22T05:43:21;10.70;99.90
13148;DHT22;6639;50.956;4.242;2022-11-22T05:45:50;10.50;99.90
13148;DHT22;6639;50.956;4.242;2022-11-22T05:48:16;9.80;99.90
13148;DHT22;6639;50.956;4.242;2022-11-22T05:50:43;10.00;99.90
13148;DHT22;6639;50.956;4.242;2022-11-22T05:53:10;10.20;99.90
13148;DHT22;6639;50.956;4.242;2022-11-22T05:55:37;10.00;99.90
13148;DHT22;6639;50.956;4.242;2022-11-22T05:58:04;10.00;99.90
13148;DHT22;6639;50.956;4.242;2022-11-22T06:00:31;9.90;99.90
13148;DHT22;6639;50.956;4.242;2022-11-22T06:03:03;10.30;99.90
13148;DHT22;6639;50.956;4.242;2022-11-22T06:05:30;10.30;99.90
13148;DHT22;6639;50.956;4.242;2022-11-22T06:07:57;10.70;99.90
13148;DHT22;6639;50.956;4.242;2022-11-22T06:10:26;10.40;99.90
13148;DHT22;6639;50.956;4.242;2022-11-22T06:12:53;10.20;99.90
13148;DHT22;6639;50.956;4.242;2022-11-22T06:15:20;9.90;99.90
13148;DHT22;6639;50.956;4.242;2022-11-22T06:17:47;9.90;99.90
13148;DHT22;6639;50.956;4.242;2022-11-22T06:20:15;10.10;99.90
13148;DHT22;6639;50.956;4.242;2022-11-22T06:22:42;10.30;99.90
13148;DHT22;6639;50.956;4.242;2022-11-22T06:25:09;10.50;99.90
13148;DHT22;6639;50.956;4.242;2022-11-22T06:27:36;10.50;99.90
13148;DHT22;6639;50.956;4.242;2022-11-22T06:30:03;10.20;99.90
13148;DHT22;6639;50.956;4.242;2022-11-22T06:32:32;10.00;99.90
13148;DHT22;6639;50.956;4.242;2022-11-22T06:35:00;9.60;99.90
13148;DHT22;6639;50.956;4.242;2022-11-22T06:37:29;9.90;99.90
13148;DHT22;6639;50.956;4.242;2022-11-22T06:39:55;9.90;99.90
13148;DHT22;6639;50.956;4.242;2022-11-22T06:42:22;9.70;99.90
13148;DHT22;6639;50.956;4.242;2022-11-22T06:44:49;9.90;99.90
13148;DHT22;6639;50.956;4.242;2022-11-22T06:47:16;9.90;99.90
13148;DHT22;6639;50.956;4.242;2022-11-22T06:49:43;10.20;99.90
13148;DHT22;6639;50.956;4.242;2022-11-22T06:52:10;10.20;99.90
13148;DHT22;6639;50.956;4.242;2022-11-22T06:54:39;9.80;99.90
13148;DHT22;6639;50.956;4.242;2022-11-22T06:57:06;9.90;99.90
13148;DHT22;6639;50.956;4.242;2022-11-22T06:59:33;10.20;99.90
13148;DHT22;6639;50.956;4.242;2022-11-22T07:02:00;10.10;99.90
13148;DHT22;6639;50.956;4.242;2022-11-22T07:04:27;9.80;99.90
13148;DHT22;6639;50.956;4.242;2022-11-22T07:06:54;9.90;99.90
13148;DHT22;6639;50.956;4.242;2022-11-22T07:09:21;9.90;99.90
13148;DHT22;6639;50.956;4.242;2022-11-22T07:11:49;9.90;99.90
13148;DHT22;6639;50.956;4.242;2022-11-22T07:14:16;9.80;99.90
13148;DHT22;6639;50.956;4.242;2022-11-22T07:16:43;9.60;99.90
13148;DHT22;6639;50.956;4.242;2022-11-22T07:19:09;9.70;99.90
13148;DHT22;6639;50.956;4.242;2022-11-22T07:21:36;9.50;99.90
13148;DHT22;6639;50.956;4.242;2022-11-22T07:24:04;9.90;99.90
13148;DHT22;6639;50.956;4.242;2022-11-22T07:26:32;9.60;99.90
13148;DHT22;6639;50.956;4.242;2022-11-22T07:29:00;9.90;99.90
13148;DHT22;6639;50.956;4.242;2022-11-22T07:31:27;10.00;99.90
13148;DHT22;6639;50.956;4.242;2022-11-22T07:33:54;10.10;99.90
13148;DHT22;6639;50.956;4.242;2022-11-22T07:36:22;10.20;99.90
13148;DHT22;6639;50.956;4.242;2022-11-22T07:38:49;10.30;99.90
13148;DHT22;6639;50.956;4.242;2022-11-22T07:41:17;10.30;99.90
13148;DHT22;6639;50.956;4.242;2022-11-22T07:43:46;10.20;99.90
13148;DHT22;6639;50.956;4.242;2022-11-22T07:46:20;10.10;99.90
13148;DHT22;6639;50.956;4.242;2022-11-22T07:48:48;9.90;99.90
13148;DHT22;6639;50.956;4.242;2022-11-22T07:51:15;10.30;99.90
13148;DHT22;6639;50.956;4.242;2022-11-22T07:53:42;10.20;99.90
13148;DHT22;6639;50.956;4.242;2022-11-22T07:56:09;10.20;99.90
13148;DHT22;6639;50.956;4.242;2022-11-22T07:58:36;9.80;99.90
13148;DHT22;6639;50.956;4.242;2022-11-22T08:01:05;10.00;99.90
13148;DHT22;6639;50.956;4.242;2022-11-22T08:03:33;10.10;99.90
13148;DHT22;6639;50.956;4.242;2022-11-22T08:06:01;10.00;99.90
13148;DHT22;6639;50.956;4.242;2022-11-22T08:08:28;10.00;99.90
13148;DHT22;6639;50.956;4.242;2022-11-22T08:10:55;10.30;99.90
13148;DHT22;6639;50.956;4.242;2022-11-22T08:13:23;10.50;99.90
13148;DHT22;6639;50.956;4.242;2022-11-22T08:15:50;10.30;99.90
13148;DHT22;6639;50.956;4.242;2022-11-22T08:18:17;10.20;99.90
13148;DHT22;6639;50.956;4.242;2022-11-22T08:20:45;10.40;99.90
13148;DHT22;6639;50.956;4.242;2022-11-22T08:23:12;10.40;99.90
13148;DHT22;6639;50.956;4.242;2022-11-22T08:25:39;10.20;99.90
13148;DHT22;6639;50.956;4.242;2022-11-22T08:28:06;10.20;99.90
13148;DHT22;6639;50.956;4.242;2022-11-22T08:30:33;10.60;99.90
13148;DHT22;6639;50.956;4.242;2022-11-22T08:32:59;10.80;99.90
13148;DHT22;6639;50.956;4.242;2022-11-22T08:35:26;10.90;99.90
13148;DHT22;6639;50.956;4.242;2022-11-22T08:37:58;10.60;99.90
13148;DHT22;6639;50.956;4.242;2022-11-22T08:40:24;10.50;99.90
13148;DHT22;6639;50.956;4.242;2022-11-22T08:42:53;10.10;99.90
13148;DHT22;6639;50.956;4.242;2022-11-22T08:45:21;10.20;99.90
13148;DHT22;6639;50.956;4.242;2022-11-22T08:47:47;10.00;99.90
13148;DHT22;6639;50.956;4.242;2022-11-22T08:50:16;10.00;99.90
13148;DHT22;6639;50.956;4.242;2022-11-22T08:52:43;10.40;99.90
13148;DHT22;6639;50.956;4.242;2022-11-22T08:55:11;10.60;99.90
13148;DHT22;6639;50.956;4.242;2022-11-22T08:57:38;10.50;99.90
13148;DHT22;6639;50.956;4.242;2022-11-22T09:00:06;10.50;99.90
13148;DHT22;6639;50.956;4.242;2022-11-22T09:02:33;10.50;99.90
13148;DHT22;6639;50.956;4.242;2022-11-22T09:05:00;10.70;99.90
13148;DHT22;6639;50.956;4.242;2022-11-22T09:07:27;10.60;99.90
13148;DHT22;6639;50.956;4.242;2022-11-22T09:09:54;10.00;99.90
13148;DHT22;6639;50.956;4.242;2022-11-22T09:12:22;9.90;99.90
13148;DHT22;6639;50.956;4.242;2022-11-22T09:14:49;10.20;99.90
13148;DHT22;6639;50.956;4.242;2022-11-22T09:17:16;10.50;99.90
13148;DHT22;6639;50.956;4.242;2022-11-22T09:19:43;10.70;99.90
13148;DHT22;6639;50.956;4.242;2022-11-22T09:22:10;10.90;99.90
13148;DHT22;6639;50.956;4.242;2022-11-22T09:24:37;10.60;99.90
13148;DHT22;6639;50.956;4.242;2022-11-22T09:27:03;10.70;99.90
13148;DHT22;6639;50.956;4.242;2022-11-22T09:29:33;10.80;99.90
13148;DHT22;6639;50.956;4.242;2022-11-22T09:31:59;11.10;99.90
13148;DHT22;6639;50.956;4.242;2022-11-22T09:34:27;10.90;99.90
13148;DHT22;6639;50.956;4.242;2022-11-22T09:36:54;11.40;99.90
13148;DHT22;6639;50.956;4.242;2022-11-22T09:39:21;11.30;99.90
13148;DHT22;6639;50.956;4.242;2022-11-22T09:42:10;11.30;99.90
13148;DHT22;6639;50.956;4.242;2022-11-22T09:45:12;11.20;99.90
13148;DHT22;6639;50.956;4.242;2022-11-22T09:47:47;11.00;99.90
13148;DHT22;6639;50.956;4.242;2022-11-22T09:50:23;10.90;99.90
13148;DHT22;6639;50.956;4.242;2022-11-22T09:52:54;11.10;99.90
13148;DHT22;6639;50.956;4.242;2022-11-22T09:55:25;11.20;99.90
13148;DHT22;6639;50.956;4.242;2022-11-22T09:58:01;11.10;99.90
13148;DHT22;6639;50.956;4.242;2022-11-22T10:00:31;11.00;99.90
13148;DHT22;6639;50.956;4.242;2022-11-22T10:03:02;11.20;99.90
13148;DHT22;6639;50.956;4.242;2022-11-22T10:05:37;11.30;99.90
13148;DHT22;6639;50.956;4.242;2022-11-22T10:08:19;11.20;99.90
13148;DHT22;6639;50.956;4.242;2022-11-22T10:10:50;11.20;99.90
13148;DHT22;6639;50.956;4.242;2022-11-22T10:13:23;11.30;99.90
13148;DHT22;6639;50.956;4.242;2022-11-22T10:15:56;11.30;99.90
13148;DHT22;6639;50.956;4.242;2022-11-22T10:18:31;11.30;99.90
13148;DHT22;6639;50.956;4.242;2022-11-22T10:20:59;11.30;99.90
13148;DHT22;6639;50.956;4.242;2022-11-22T10:23:27;11.20;99.90
13148;DHT22;6639;50.956;4.242;2022-11-22T10:25:58;11.30;99.90
13148;DHT22;6639;50.956;4.242;2022-11-22T10:28:32;11.60;99.90
13148;DHT22;6639;50.956;4.242;2022-11-22T10:31:05;11.60;99.90
13148;DHT22;6639;50.956;4.242;2022-11-22T10:33:37;11.40;99.90
13148;DHT22;6639;50.956;4.242;2022-11-22T10:36:20;11.10;99.90
13148;DHT22;6639;50.956;4.242;2022-11-22T10:39:09;11.30;99.90
13148;DHT22;6639;50.956;4.242;2022-11-22T10:41:45;11.30;99.90
13148;DHT22;6639;50.956;4.242;2022-11-22T10:44:23;11.60;99.90
13148;DHT22;6639;50.956;4.242;2022-11-22T10:47:00;11.90;99.90
13148;DHT22;6639;50.956;4.242;2022-11-22T10:49:42;11.40;99.90
13148;DHT22;6639;50.956;4.242;2022-11-22T10:52:17;11.40;99.90
13148;DHT22;6639;50.956;4.242;2022-11-22T10:54:51;11.30;99.90
13148;DHT22;6639;50.956;4.242;2022-11-22T10:57:28;11.60;99.90
13148;DHT22;6639;50.956;4.242;2022-11-22T11:00:07;11.40;99.90
13148;DHT22;6639;50.956;4.242;2022-11-22T11:03:00;11.80;99.90
13148;DHT22;6639;50.956;4.242;2022-11-22T11:05:33;11.80;99.90
13148;DHT22;6639;50.956;4.242;2022-11-22T11:08:01;11.70;99.90
13148;DHT22;6639;50.956;4.242;2022-11-22T11:10:33;12.00;99.90
13148;DHT22;6639;50.956;4.242;2022-11-22T11:13:03;11.90;99.90
13148;DHT22;6639;50.956;4.242;2022-11-22T11:15:34;11.90;99.90
13148;DHT22;6639;50.956;4.242;2022-11-22T11:18:07;11.80;99.90
13148;DHT22;6639;50.956;4.242;2022-11-22T11:20:41;11.50;99.90
13148;DHT22;6639;50.956;4.242;2022-11-22T11:23:08;11.60;99.90
13148;DHT22;6639;50.956;4.242;2022-11-22T11:25:37;11.90;99.90
13148;DHT22;6639;50.956;4.242;2022-11-22T11:28:07;11.80;99.90
13148;DHT22;6639;50.956;4.242;2022-11-22T11:30:40;11.70;99.90
13148;DHT22;6639;50.956;4.242;2022-11-22T11:33:24;11.80;99.90
13148;DHT22;6639;50.956;4.242;2022-11-22T11:35:54;11.90;99.90
13148;DHT22;6639;50.956;4.242;2022-11-22T11:38:33;12.00;99.90
13148;DHT22;6639;50.956;4.242;2022-11-22T11:41:22;11.90;99.90
13148;DHT22;6639;50.956;4.242;2022-11-22T11:43:50;11.80;99.90
13148;DHT22;6639;50.956;4.242;2022-11-22T11:46:19;12.00;99.90
13148;DHT22;6639;50.956;4.242;2022-11-22T11:48:48;11.70;99.90
13148;DHT22;6639;50.956;4.242;2022-11-22T11:51:19;11.70;99.90
13148;DHT22;6639;50.956;4.242;2022-11-22T11:53:56;11.80;99.90
13148;DHT22;6639;50.956;4.242;2022-11-22T11:59:13;12.30;99.90
13148;DHT22;6639;50.956;4.242;2022-11-22T12:01:50;12.40;99.90
13148;DHT22;6639;50.956;4.242;2022-11-22T12:04:22;12.30;99.90
13148;DHT22;6639;50.956;4.242;2022-11-22T12:06:55;12.30;99.90
13148;DHT22;6639;50.956;4.242;2022-11-22T12:09:29;12.20;99.90
13148;DHT22;6639;50.956;4.242;2022-11-22T12:11:59;12.20;99.90
13148;DHT22;6639;50.956;4.242;2022-11-22T12:14:28;12.20;99.90
13148;DHT22;6639;50.956;4.242;2022-11-22T12:17:00;11.90;99.90
13148;DHT22;6639;50.956;4.242;2022-11-22T12:19:41;11.80;99.90
13148;DHT22;6639;50.956;4.242;2022-11-22T12:22:17;12.20;99.90
13148;DHT22;6639;50.956;4.242;2022-11-22T12:24:50;12.60;99.90
13148;DHT22;6639;50.956;4.242;2022-11-22T12:27:18;12.00;99.90
13148;DHT22;6639;50.956;4.242;2022-11-22T12:29:45;12.10;99.90
13148;DHT22;6639;50.956;4.242;2022-11-22T12:32:15;12.30;99.90
13148;DHT22;6639;50.956;4.242;2022-11-22T12:34:50;12.60;99.90
13148;DHT22;6639;50.956;4.242;2022-11-22T12:37:22;12.50;99.90
13148;DHT22;6639;50.956;4.242;2022-11-22T12:39:54;13.00;99.90
13148;DHT22;6639;50.956;4.242;2022-11-22T12:42:27;12.90;99.90
13148;DHT22;6639;50.956;4.242;2022-11-22T12:44:57;12.70;99.90
13148;DHT22;6639;50.956;4.242;2022-11-22T12:47:31;12.40;99.90
13148;DHT22;6639;50.956;4.242;2022-11-22T12:50:04;12.50;99.90
13148;DHT22;6639;50.956;4.242;2022-11-22T12:52:39;12.40;99.90
13148;DHT22;6639;50.956;4.242;2022-11-22T12:55:11;12.40;99.90
13148;DHT22;6639;50.956;4.242;2022-11-22T12:57:47;12.50;99.90
13148;DHT22;6639;50.956;4.242;2022-11-22T13:00:17;12.50;99.90
13148;DHT22;6639;50.956;4.242;2022-11-22T13:02:55;12.30;99.90
13148;DHT22;6639;50.956;4.242;2022-11-22T13:05:26;12.30;99.90
13148;DHT22;6639;50.956;4.242;2022-11-22T13:07:59;12.80;99.90
13148;DHT22;6639;50.956;4.242;2022-11-22T13:10:33;13.00;99.90
13148;DHT22;6639;50.956;4.242;2022-11-22T13:13:03;13.00;99.90
13148;DHT22;6639;50.956;4.242;2022-11-22T13:15:32;13.00;99.90
13148;DHT22;6639;50.956;4.242;2022-11-22T13:18:00;12.80;99.90
13148;DHT22;6639;50.956;4.242;2022-11-22T13:20:33;12.60;99.90
13148;DHT22;6639;50.956;4.242;2022-11-22T13:23:12;12.40;99.90
13148;DHT22;6639;50.956;4.242;2022-11-22T13:25:52;12.60;99.90
13148;DHT22;6639;50.956;4.242;2022-11-22T13:28:25;12.90;99.90
13148;DHT22;6639;50.956;4.242;2022-11-22T13:31:05;12.90;99.90
13148;DHT22;6639;50.956;4.242;2022-11-22T13:33:34;12.60;99.90
13148;DHT22;6639;50.956;4.242;2022-11-22T13:39:11;13.00;99.90
13148;DHT22;6639;50.956;4.242;2022-11-22T13:41:51;12.70;99.90
13148;DHT22;6639;50.956;4.242;2022-11-22T13:44:32;12.90;99.90
13148;DHT22;6639;50.956;4.242;2022-11-22T13:47:00;13.30;99.90
13148;DHT22;6639;50.956;4.242;2022-11-22T13:49:36;13.60;99.90
13148;DHT22;6639;50.956;4.242;2022-11-22T13:52:48;13.50;99.90
13148;DHT22;6639;50.956;4.242;2022-11-22T13:55:29;13.20;99.90
13148;DHT22;6639;50.956;4.242;2022-11-22T14:01:53;12.80;99.90
13148;DHT22;6639;50.956;4.242;2022-11-22T14:04:39;13.40;99.90
13148;DHT22;6639;50.956;4.242;2022-11-22T14:07:33;13.30;99.90
13148;DHT22;6639;50.956;4.242;2022-11-22T14:10:01;13.40;99.90
13148;DHT22;6639;50.956;4.242;2022-11-22T14:12:37;13.20;99.90
13148;DHT22;6639;50.956;4.242;2022-11-22T14:15:45;13.10;99.90
13148;DHT22;6639;50.956;4.242;2022-11-22T14:18:32;13.30;99.90
13148;DHT22;6639;50.956;4.242;2022-11-22T14:21:07;13.40;99.90
13148;DHT22;6639;50.956;4.242;2022-11-22T14:23:47;13.40;99.90
13148;DHT22;6639;50.956;4.242;2022-11-22T14:26:24;13.00;99.90
13148;DHT22;6639;50.956;4.242;2022-11-22T14:29:35;13.10;99.90
13148;DHT22;6639;50.956;4.242;2022-11-22T14:32:13;13.10;99.90
13148;DHT22;6639;50.956;4.242;2022-11-22T14:35:15;13.20;99.90
13148;DHT22;6639;50.956;4.242;2022-11-22T14:37:45;13.30;99.90
13148;DHT22;6639;50.956;4.242;2022-11-22T14:40:24;12.90;99.90
13148;DHT22;6639;50.956;4.242;2022-11-22T14:42:54;12.90;99.90
13148;DHT22;6639;50.956;4.242;2022-11-22T14:45:38;12.80;99.90
13148;DHT22;6639;50.956;4.242;2022-11-22T14:48:14;12.70;99.90
13148;DHT22;6639;50.956;4.242;2022-11-22T14:50:46;12.70;99.90
13148;DHT22;6639;50.956;4.242;2022-11-22T14:53:29;12.80;99.90
13148;DHT22;6639;50.956;4.242;2022-11-22T14:56:03;12.80;99.90
13148;DHT22;6639;50.956;4.242;2022-11-22T14:58:34;12.70;99.90
13148;DHT22;6639;50.956;4.242;2022-11-22T15:01:30;12.60;99.90
13148;DHT22;6639;50.956;4.242;2022-11-22T15:04:20;12.40;99.90
13148;DHT22;6639;50.956;4.242;2022-11-22T15:06:57;12.40;99.90
13148;DHT22;6639;50.956;4.242;2022-11-22T15:10:01;12.70;99.90
13148;DHT22;6639;50.956;4.242;2022-11-22T15:13:03;12.40;99.90
13148;DHT22;6639;50.956;4.242;2022-11-22T15:15:35;12.50;99.90
13148;DHT22;6639;50.956;4.242;2022-11-22T15:18:10;12.50;99.90
13148;DHT22;6639;50.956;4.242;2022-11-22T15:20:40;12.50;99.90
13148;DHT22;6639;50.956;4.242;2022-11-22T15:23:14;12.60;99.90
13148;DHT22;6639;50.956;4.242;2022-11-22T15:25:42;12.80;99.90
13148;DHT22;6639;50.956;4.242;2022-11-22T15:28:15;12.60;99.90
13148;DHT22;6639;50.956;4.242;2022-11-22T15:30:42;12.50;99.90
13148;DHT22;6639;50.956;4.242;2022-11-22T15:33:28;12.30;99.90
13148;DHT22;6639;50.956;4.242;2022-11-22T15:36:16;12.80;99.90
13148;DHT22;6639;50.956;4.242;2022-11-22T15:38:49;12.80;99.90
13148;DHT22;6639;50.956;4.242;2022-11-22T15:41:18;13.00;99.90
13148;DHT22;6639;50.956;4.242;2022-11-22T15:43:48;13.00;99.90
13148;DHT22;6639;50.956;4.242;2022-11-22T15:46:16;12.90;99.90
13148;DHT22;6639;50.956;4.242;2022-11-22T15:48:46;12.90;99.90
13148;DHT22;6639;50.956;4.242;2022-11-22T15:51:23;12.90;99.90
13148;DHT22;6639;50.956;4.242;2022-11-22T15:53:59;12.50;99.90
13148;DHT22;6639;50.956;4.242;2022-11-22T15:56:31;12.50;99.90
13148;DHT22;6639;50.956;4.242;2022-11-22T15:59:00;12.40;99.90
13148;DHT22;6639;50.956;4.242;2022-11-22T16:01:28;12.50;99.90
13148;DHT22;6639;50.956;4.242;2022-11-22T16:03:57;12.60;99.90
13148;DHT22;6639;50.956;4.242;2022-11-22T16:06:26;12.70;99.90
13148;DHT22;6639;50.956;4.242;2022-11-22T16:08:59;12.50;99.90
13148;DHT22;6639;50.956;4.242;2022-11-22T16:11:28;12.60;99.90
13148;DHT22;6639;50.956;4.242;2022-11-22T16:13:56;12.50;99.90
13148;DHT22;6639;50.956;4.242;2022-11-22T16:16:27;12.50;99.90
13148;DHT22;6639;50.956;4.242;2022-11-22T16:19:18;12.60;99.90
13148;DHT22;6639;50.956;4.242;2022-11-22T16:21:54;12.50;99.90